Portada
METAR-TAF:

METAR-TAF

Aeropuertos :

Aeropuerto Internacional Alejandro Velasco Astete

Cuzco, Perú

latitud: 13-33S, longitud: 071-59W, altitud: 3248 m

Observación

El informe se hizo hace 46 minutos, a las 05:00 UTC
Viento 2 kt del este-sureste
Temperatura 11°C
Humedad 66%
Presión 1028 hPa
Visibilidad 10 km o más
Cielo nuboso a una altura de 10000 ft

METAR: SPZO 120500Z 12002KT 9999 BKN100 11/05 Q1028 RMK BIRD HAZARD RWY 28 PP000

Hora: 00:46 (05:46 UTC)

Pronóstico

El informe se hizo hace 46 minutos, a las 05:00 UTC
Pronóstico válido del 12 a las 06 UTC al 13 a las 06 UTC
Viento 4 kt con dirección variable
Visibilidad 10 km o más
Cielo nuboso a una altura de 10000 ft
Temporalmente
del 12 a las 18 UTC al 12 a las 23 UTC
Viento 10 kt del norte-noroeste
Nubes dispersas a una altura de 5000 ft
Nubes dispersas a una altura de 10000 ft

TAF: SPZO 120500Z 1206/1306 VRB04KT 9999 BKN100 TX22/1219Z TN08/1211Z TEMPO 1218/1223 33010KT SCT050 SCT100

Observaciones y pronósticos meteorológicos de más de 4000 aeropuertos (mensajes METAR y TAF).

Los puntos amarillos y rojos representan las estaciones disponibles.

Ponga el ratón en el punto deseado para ver el nombre de la estación.

Haga clic para ver las observaciones y los pronósticos meteorológicos.

Para cambiar el mapa : haga clic en los botones verdes con una cruz de color negro para hacer un zoom, en el botón verde con un guión para alejar o en las flechas verdes para mapas adyacentes.


METAR-TAF: